الصفحة الرئيسية
METAR-TAF:

METAR-TAF

مطار :

إمارة دبي, الإمارات العربية المتحدة

مطار دبي الدولي

دائرة عرض: 25-15-10N, خط طول: 055-21-52E, ارتفاع: 8 متر

مراقبة الطقس الحالي

تاريخ ووقت الإصدار 38 دقيقة قبل الساعة 08:00UTC
ريح 7 عقدة من الشمال الغربي, الاتجاه يتراوح بين الغرب/الشمال الغربي و الشمال
درجة الحرارة 27°درجة مئوية
الرطوبة 26%
ضغط 1012 hPa
الرؤية 10 كم أو أكثر
الغيوم لا تقل 1500 م ولا وجود لمزنة ركامية السحاب الأسود

METAR: OMDB 220800Z 32007KT 290V360 CAVOK 27/06 Q1012 NOSIG

زمن: 12:38 (08:38 UTC)

توقعات

تاريخ ووقت الإصدار 3ساعات و 38 دقيقة قبل الساعة 05:00UTC
التوقعات صالحة من22 الساعة 06 UTC إلى 23 الساعة 12 UTC
ريح 2 عقدةمن اتجاهات متغيرة
الرؤية: 8000 متر
أصبح
من 22 الساعة 08 UTC إلى 22 الساعة 10 UTC
ريح 10 عقدة من الغرب/الشمال الغربي
أصبح
من 22 الساعة 15 UTC إلى 22 الساعة 17 UTC
ريح 5 عقدة من الجنوب/الجنوب الشرقي
أصبح
من 23 الساعة 08 UTC إلى 23 الساعة 10 UTC
ريح 10 عقدة من الشمال الغربي

TAF: OMDB 220500Z 2206/2312 VRB02KT 8000 NSC BECMG 2208/2210 29010KT BECMG 2215/2217 16005KT BECMG 2308/2310 32010KT

أرصاد الطقس والتوقعات من أكثر من 4000 مطار (تقارير الطقس للمطار METAR والتنبؤ بالطقس بالمطارTAF).

المحطات المتاحة هي النقط الصفراء والحمراء على الخريطة.

حرك المؤشر فوق النقطة لمعرفة اسم المحطة.

ثم انقر لمعرفة أرصاد وتوقعات الطقس.

لتغيير الخارطة: اضغط على الأزرار الخضراء مع رمز الصليب الأسود للتكبير. على الزر الأخضر مع شرطة للتصغير، أو على الأسهم الخضراء للخرائط المجاورة.


METAR-TAF: